Aérodrome :
LOGIN :

S'inscrire | Disclaimer

   EN    FR    IT 

 










Légende :    VFR   VFR Marginal   IFR   IFR Intensif   IFR Très Intensif
Visi : 
Plafond : 
>= 8 km
>= 3000ft
5 à 8 km
1000 à 3000 ft
1500m à 5 km
500 à 1000 ft
800 à 1500m
200 à 500 ft
< 800m
< 200 ft
Symboles :   Orages  Brouillard  Fortes neiges  Fortes précipitations  Vent > 20 kt
SIGMETs :   Divers  Orages  Givrage  Turbulence  Onde Orograph.  Cendres Volcan.







- Altitude de l'aérodrome : 427 ft
- Code IATA : CIA


LIRA - Roma Ciampino

DERNIER METAR :
  • 200820Z 08005KT 9999 -RA FEW020 BKN040 07/05 Q1013

METARs EXPIRÉS :
  • 200750Z 08004KT 050V110 9000 -RA FEW020 BKN040 07/05 Q1013
  • 200720Z 08003KT 060V120 8000 -RA FEW020 BKN040 07/05 Q1013
  • 200650Z 15003KT 120V180 9999 -DZ FEW020 BKN040 07/05 Q1012 REDZ
  • 200620Z 10003KT 9999 DZ FEW020 BKN045 07/05 Q1012
  • 200550Z 09004KT 8000 -DZ SCT025 BKN040 07/05 Q1012

TAF COR TAF LIRA
Valide du 20 à 06h jusqu'au 21 à 06h UTC


200650Z 2006/2106 15010KT 7000 RA BKN040
TEMPO 2008/2012 4000 SHRA
BECMG 2012/2015 02008KT NSW
BECMG 2020/2022 VRB05KT
Pas de NOTAMs connus pour ce terrain.



MET'MAP, la Météo Aéronautique d'un coup d'oeil ! - Copyright ORBIFLY Décembre 2007 - Disclaimer

ORBIFLY MET'MAP TEAM :

Programmation & Développement : Alexandra Zaïnal
Conception & Développement : Baudouin d'Aumeries
Co-Programmation & Développement : Marc-Olivier Méhu
Soutien technique & logistique : Manuel Goepfert

Contact : metmap@orbifly.com




SOURCES & CREDITS :

   NOAA